Airfield :
LOGIN :

Register | Disclaimer

   EN    FR    IT 

 










Legend :    VFR   Marginal VFR   IFR   Intensive IFR   Very Intensive IFR
Visi :
Ceiling :
>= 8 km
>= 3000ft
5 to 8 km
1000 to 3000 ft
1500m to 5 km
500 to 1000 ft
800 to 1500m
200 to 500 ft
< 800m
< 200 ft
Symbols :   Thunderstorms  Fog  Heavy snow  Heavy precipitations  Wind > 20 kt
SIGMETs :     Misc.  Thunderstorms  Icing  Turbulence  Mountain Waves  Volcanic Ashes






- Airport Elevation : 233 ft
- IATA code : REU


LERS - Reus Tarragona

CURRENT METAR :
  • 050630Z 28027G41KT 250V310 9999 FEW030 11/02 Q1011

EXPIRED METARs :
  • 050600Z 28028G42KT 250V320 CAVOK 10/03 Q1010
  • 050530Z AUTO 28028G39KT 9999 FEW027 10/03 Q1011
  • 050500Z AUTO 28026G38KT 240V300 CAVOK 11/02 Q1011
  • 050430Z AUTO 27027G42KT 240V300 CAVOK 11/02 Q1011

TAF TAF LERS
Valid from the 05 at 03:00 until the 06 at 03:00 UTC


050200Z 0503/0603 30020KT CAVOK TX13/0512Z TN06/0506Z
TEMPO 0503/0511 27030G45KT
TEMPO 0511/0518 30025G35KT
TEMPO 0521/0524 25005KT



MET'MAP, your aeronautical weather chart ! - Copyright ORBIFLY December 2007 - Disclaimer

ORBIFLY MET'MAP TEAM :

Programming & Development : Alexandra Zaïnal
Concept & original design : Baudouin d'Aumeries
Assistance for programming : Marc-Olivier Méhu
Technical & hardware support : Manuel Goepfert

Contact : metmap@orbifly.com




SOURCES & CREDITS :

   NOAA